Time;durP1;ratioP1;P1;durP2;ratioP2;P2;SDS_P1;SDS_P2;PMS_P1;PMS_P2;Temp;Humidity;BMP_temperature;BMP_pressure;BME280_temperature;BME280_humidity;BME280_pressure;Samples;Min_cycle;Max_cycle;Signal;HPM_P1;HPM_P2
2022/03/30 00:00:51;;;;;;;16.87;9.80;;;;;;;11.03;100.00;99428.19;1692435;84;21064;-57
2022/03/30 00:03:18;;;;;;;16.23;9.13;;;;;;;11.11;100.00;99417.02;1654433;85;21139;-57
2022/03/30 00:05:45;;;;;;;22.52;9.68;;;;;;;10.94;100.00;99423.17;1630100;86;21100;-62
2022/03/30 00:08:12;;;;;;;15.48;8.25;;;;;;;10.71;100.00;99426.75;1629475;86;21284;-57
2022/03/30 00:10:39;;;;;;;19.10;9.90;;;;;;;10.51;100.00;99424.69;1665329;85;21876;-57
2022/03/30 00:13:08;;;;;;;20.35;8.75;;;;;;;10.58;100.00;99431.50;1667881;84;21484;-58
2022/03/30 00:15:34;;;;;;;20.55;9.70;;;;;;;10.78;100.00;99429.34;1667320;84;21492;-64
2022/03/30 00:18:01;;;;;;;20.05;9.45;;;;;;;10.79;100.00;99425.73;1666497;85;21138;-58
2022/03/30 00:20:30;;;;;;;17.07;9.53;;;;;;;10.79;100.00;99421.31;1667339;84;21081;-58
2022/03/30 00:22:58;;;;;;;20.02;9.35;;;;;;;10.81;100.00;99424.53;1667914;85;21003;-58
2022/03/30 00:25:24;;;;;;;19.15;9.55;;;;;;;10.80;100.00;99422.94;1668149;84;21098;-63
2022/03/30 00:27:52;;;;;;;17.90;11.15;;;;;;;10.83;100.00;99425.11;1645835;85;21125;-61
2022/03/30 00:30:20;;;;;;;17.15;8.68;;;;;;;10.83;100.00;99425.11;1667613;85;21433;-59
2022/03/30 00:32:47;;;;;;;19.35;10.10;;;;;;;10.96;100.00;99422.98;1667702;85;21069;-58
2022/03/30 00:35:14;;;;;;;23.55;11.88;;;;;;;11.98;94.41;99421.78;1668039;84;21186;-60
2022/03/30 00:37:43;;;;;;;18.42;10.40;;;;;;;10.92;100.00;99428.31;1667376;84;20986;-57
2022/03/30 00:40:13;;;;;;;20.90;9.93;;;;;;;11.02;100.00;99434.39;1668134;85;21030;-60
2022/03/30 00:42:40;;;;;;;15.85;8.95;;;;;;;11.78;95.41;99420.08;1667823;84;21062;-58
2022/03/30 00:45:15;;;;;;;20.05;9.38;;;;;;;12.08;87.60;99419.47;1668149;84;21066;-59
2022/03/30 00:47:42;;;;;;;16.50;9.53;;;;;;;11.02;96.63;99420.84;1684476;85;21244;-58
2022/03/30 00:50:11;;;;;;;21.35;10.28;;;;;;;10.66;100.00;99426.57;1686408;85;21476;-58
2022/03/30 00:52:38;;;;;;;16.42;9.25;;;;;;;10.89;100.00;99425.61;1628955;86;21030;-58
2022/03/30 00:55:06;;;;;;;16.70;9.35;;;;;;;10.89;100.00;99424.81;1686458;85;21081;-58
2022/03/30 00:57:33;;;;;;;19.48;10.30;;;;;;;10.72;100.00;99427.07;1656630;86;20928;-58
2022/03/30 00:59:59;;;;;;;19.12;9.93;;;;;;;10.66;100.00;99430.48;1656691;85;21160;-55
2022/03/30 01:02:26;;;;;;;19.45;9.75;;;;;;;10.72;100.00;99425.77;1665480;85;20995;-56
2022/03/30 01:04:53;;;;;;;15.98;9.08;;;;;;;10.53;100.00;99431.31;1647668;85;21069;-57
2022/03/30 01:07:22;;;;;;;16.55;9.60;;;;;;;10.40;100.00;99433.92;1667510;85;21081;-56
2022/03/30 01:09:49;;;;;;;17.40;9.83;;;;;;;10.50;100.00;99432.22;1667379;85;21105;-59
2022/03/30 01:12:16;;;;;;;17.07;10.05;;;;;;;11.30;100.00;99431.48;1667729;85;21278;-59
2022/03/30 01:14:43;;;;;;;17.95;9.28;;;;;;;11.32;99.68;99427.64;1668110;85;21017;-57
2022/03/30 01:17:10;;;;;;;19.40;9.35;;;;;;;11.37;98.93;99421.31;1663529;84;21550;-60
2022/03/30 01:19:39;;;;;;;19.37;10.20;;;;;;;10.56;100.00;99424.37;1665803;85;21125;-56
2022/03/30 01:22:07;;;;;;;16.27;9.75;;;;;;;10.36;100.00;99432.22;1667810;85;20962;-57
2022/03/30 01:24:36;;;;;;;18.25;10.10;;;;;;;10.27;100.00;99437.34;1667904;84;21059;-57
2022/03/30 01:27:04;;;;;;;20.00;9.88;;;;;;;10.22;100.00;99443.60;1659101;85;21124;-57
2022/03/30 01:32:25;;;;;;;15.15;9.98;;;;;;;10.05;100.00;99439.81;1668519;85;21101;-57
2022/03/30 01:34:56;;;;;;;16.65;9.43;;;;;;;10.24;100.00;99442.92;1667681;85;21603;-57
2022/03/30 01:37:23;;;;;;;16.85;8.85;;;;;;;10.60;100.00;99440.41;1668262;85;22031;-56
2022/03/30 01:39:50;;;;;;;16.25;8.85;;;;;;;10.72;100.00;99442.71;1667396;85;21057;-57
2022/03/30 01:42:17;;;;;;;18.90;10.20;;;;;;;10.46;100.00;99440.94;1667896;85;21014;-62
2022/03/30 01:44:44;;;;;;;16.42;10.03;;;;;;;10.28;100.00;99436.84;1666988;85;21124;-58
2022/03/30 01:47:12;;;;;;;19.17;10.48;;;;;;;10.23;100.00;99437.41;1667728;85;22442;-58
2022/03/30 01:49:41;;;;;;;19.77;9.03;;;;;;;11.06;100.00;99433.80;1667352;85;21034;-58
2022/03/30 01:52:08;;;;;;;18.80;10.60;;;;;;;10.52;100.00;99449.23;1668135;85;21017;-57
2022/03/30 01:54:39;;;;;;;17.52;11.03;;;;;;;10.45;100.00;99453.17;1666792;85;20959;-62
2022/03/30 01:57:06;;;;;;;18.55;9.65;;;;;;;10.39;100.00;99455.27;1667777;85;21113;-59
2022/03/30 01:59:34;;;;;;;19.75;11.25;;;;;;;10.34;100.00;99453.77;1668058;85;21030;-57
2022/03/30 02:02:02;;;;;;;20.68;10.32;;;;;;;10.38;100.00;99454.14;1667897;85;21223;-58
2022/03/30 02:04:30;;;;;;;20.97;9.08;;;;;;;11.42;98.93;99448.08;1655563;85;21534;-62
2022/03/30 02:06:57;;;;;;;16.95;9.55;;;;;;;10.52;100.00;99466.67;1643490;86;21037;-57
2022/03/30 02:09:24;;;;;;;20.20;9.83;;;;;;;10.27;100.00;99455.58;1639893;87;21494;-57
2022/03/30 02:11:51;;;;;;;19.50;11.18;;;;;;;10.43;100.00;99459.07;1639630;87;21152;-60
2022/03/30 02:14:20;;;;;;;19.50;10.40;;;;;;;10.32;100.00;99460.17;1639631;87;21105;-59
2022/03/30 02:16:49;;;;;;;21.93;10.10;;;;;;;10.56;100.00;99461.36;1639116;87;20981;-62
2022/03/30 02:19:17;;;;;;;18.65;9.85;;;;;;;10.71;100.00;99458.03;1639756;87;21081;-57
2022/03/30 02:21:44;;;;;;;20.77;11.22;;;;;;;10.74;100.00;99456.33;1639595;87;21092;-57
2022/03/30 02:24:12;;;;;;;17.15;10.10;;;;;;;10.76;100.00;99458.24;1639481;87;21037;-58
2022/03/30 02:26:38;;;;;;;16.80;10.80;;;;;;;10.64;100.00;99455.94;1639256;87;21443;-62
2022/03/30 02:29:06;;;;;;;18.90;10.10;;;;;;;10.51;100.00;99458.57;1639051;87;21009;-56
2022/03/30 02:31:34;;;;;;;20.23;10.98;;;;;;;10.54;100.00;99463.38;1639665;87;21022;-57
2022/03/30 02:34:01;;;;;;;15.65;9.63;;;;;;;10.22;100.00;99459.23;1636324;84;21069;-56
2022/03/30 02:36:28;;;;;;;19.12;11.15;;;;;;;10.31;100.00;99459.37;1636274;85;21121;-60
2022/03/30 02:38:55;;;;;;;17.62;10.82;;;;;;;10.31;100.00;99459.37;1639320;85;22425;-60
2022/03/30 02:41:22;;;;;;;19.32;10.32;;;;;;;10.27;100.00;99466.50;1637250;85;21015;-56
2022/03/30 02:43:50;;;;;;;16.27;10.43;;;;;;;10.23;100.00;99468.67;1637567;85;21104;-61
2022/03/30 02:46:17;;;;;;;24.55;13.35;;;;;;;10.24;100.00;99461.95;1637133;85;21088;-56
2022/03/30 02:48:43;;;;;;;16.52;10.63;;;;;;;10.23;100.00;99455.64;1636888;86;21500;-57
2022/03/30 02:51:10;;;;;;;17.52;9.58;;;;;;;10.24;100.00;99452.83;1637686;86;21918;-57
2022/03/30 02:53:38;;;;;;;19.90;11.48;;;;;;;10.30;100.00;99457.75;1637074;85;21089;-56
2022/03/30 02:56:05;;;;;;;24.35;11.97;;;;;;;10.16;100.00;99462.15;1637437;87;21063;-56
2022/03/30 02:58:33;;;;;;;18.92;11.20;;;;;;;10.19;100.00;99464.83;1636941;87;21077;-56
2022/03/30 03:01:00;;;;;;;20.72;10.75;;;;;;;10.37;100.00;99455.95;1685794;79;21363;-56
2022/03/30 03:03:27;;;;;;;20.05;11.22;;;;;;;10.36;100.00;99450.45;1766376;79;21362;-60
2022/03/30 03:05:53;;;;;;;21.55;12.65;;;;;;;10.13;100.00;99445.61;1754979;79;20997;-58
2022/03/30 03:08:22;;;;;;;17.87;11.50;;;;;;;9.98;100.00;99441.09;1765597;81;21104;-61
2022/03/30 03:10:48;;;;;;;21.75;11.30;;;;;;;10.06;100.00;99430.98;1766924;79;21097;-57
2022/03/30 03:13:16;;;;;;;21.87;11.85;;;;;;;9.98;100.00;99440.59;1757173;79;21080;-62
2022/03/30 03:15:46;;;;;;;17.87;10.50;;;;;;;9.91;100.00;99431.97;1738995;79;21022;-58
2022/03/30 03:18:13;;;;;;;21.80;11.10;;;;;;;10.81;100.00;99421.92;1738224;79;20891;-57
2022/03/30 03:20:44;;;;;;;19.85;12.00;;;;;;;10.15;100.00;99423.27;1737489;79;21014;-57
2022/03/30 03:23:11;;;;;;;18.15;11.85;;;;;;;9.72;100.00;99434.84;1737928;81;28526;-62
2022/03/30 03:25:39;;;;;;;23.85;12.50;;;;;;;10.26;100.00;99428.41;1752692;79;21460;-58
2022/03/30 03:28:09;;;;;;;21.93;12.65;;;;;;;9.63;100.00;99435.24;1746409;79;21237;-59
2022/03/30 03:30:37;;;;;;;22.05;12.98;;;;;;;9.49;100.00;99432.59;1744685;79;21038;-59
2022/03/30 03:33:07;;;;;;;17.92;11.22;;;;;;;9.32;100.00;99430.05;1743404;81;22070;-58
2022/03/30 03:35:34;;;;;;;24.02;13.88;;;;;;;9.28;100.00;99428.84;1743675;81;21080;-59
2022/03/30 03:38:01;;;;;;;22.70;12.88;;;;;;;9.27;100.00;99427.21;1745128;79;22329;-59
2022/03/30 03:40:27;;;;;;;18.70;12.68;;;;;;;9.24;100.00;99418.02;1745312;79;21105;-61
2022/03/30 03:42:55;;;;;;;21.07;11.08;;;;;;;9.67;100.00;99415.63;1742788;81;22300;-58
2022/03/30 03:45:21;;;;;;;24.70;11.95;;;;;;;9.82;100.00;99421.45;1744723;79;21628;-63
2022/03/30 03:47:48;;;;;;;22.70;12.13;;;;;;;9.74;100.00;99423.75;1747367;79;21045;-57
2022/03/30 03:50:15;;;;;;;22.22;12.70;;;;;;;9.73;100.00;99431.73;1758432;79;21079;-59
2022/03/30 03:52:43;;;;;;;21.73;11.80;;;;;;;9.77;100.00;99428.24;1768343;79;21034;-62
2022/03/30 03:55:11;;;;;;;20.40;12.05;;;;;;;9.91;100.00;99425.97;1765878;81;20911;-58
2022/03/30 03:57:39;;;;;;;21.17;12.23;;;;;;;9.95;100.00;99434.98;1767931;79;20994;-58
2022/03/30 04:00:08;;;;;;;22.73;13.45;;;;;;;10.14;100.00;99427.67;1766928;81;21544;-59
2022/03/30 04:02:42;;;;;;;21.75;13.18;;;;;;;10.28;100.00;99432.42;1755154;79;21037;-63
2022/03/30 04:05:09;;;;;;;18.73;12.53;;;;;;;11.25;100.00;99442.55;1753652;79;21155;-58
2022/03/30 04:07:39;;;;;;;22.22;12.60;;;;;;;10.98;100.00;99443.63;1754676;79;21567;-62
2022/03/30 04:10:08;;;;;;;19.07;12.78;;;;;;;11.28;100.00;99446.03;1754931;79;21944;-57
2022/03/30 04:12:35;;;;;;;22.75;12.93;;;;;;;12.00;100.00;99447.96;1755033;79;21037;-62
2022/03/30 04:15:03;;;;;;;22.17;12.50;;;;;;;11.84;100.00;99458.92;1753510;79;21105;-58
2022/03/30 04:17:32;;;;;;;18.37;12.47;;;;;;;12.16;100.00;99457.12;1754449;79;21250;-63
2022/03/30 04:20:00;;;;;;;21.50;13.40;;;;;;;12.46;100.00;99453.33;1754175;79;21052;-58
2022/03/30 04:22:28;;;;;;;24.02;13.98;;;;;;;12.75;100.00;99455.77;1754823;79;21042;-63
2022/03/30 04:24:56;;;;;;;21.35;10.98;;;;;;;13.28;100.00;99460.45;1754445;79;21105;-58
2022/03/30 04:27:23;;;;;;;23.05;14.83;;;;;;;13.73;100.00;99457.46;1754626;79;21055;-58
2022/03/30 04:29:49;;;;;;;20.35;12.20;;;;;;;14.17;100.00;99450.17;1735056;79;21149;-59
2022/03/30 04:32:17;;;;;;;24.93;17.03;;;;;;;14.60;100.00;99450.38;1747506;79;21109;-62
2022/03/30 04:34:43;;;;;;;29.03;19.57;;;;;;;15.29;96.73;99449.97;1753970;79;21231;-59
2022/03/30 04:37:10;;;;;;;20.87;14.20;;;;;;;15.61;88.97;99451.33;1754608;79;21168;-58
2022/03/30 04:39:37;;;;;;;22.03;14.07;;;;;;;15.91;80.54;99443.20;1754738;79;21747;-59
2022/03/30 04:42:04;;;;;;;33.87;21.97;;;;;;;16.06;75.36;99438.20;1753678;79;21269;-62
2022/03/30 04:44:30;;;;;;;23.27;15.97;;;;;;;16.19;73.79;99447.62;1754206;79;21847;-57
2022/03/30 04:46:57;;;;;;;21.87;13.77;;;;;;;16.50;71.23;99442.28;1753142;79;21367;-58
2022/03/30 04:49:24;;;;;;;22.87;15.87;;;;;;;17.12;59.62;99436.82;1755750;80;21865;-58
2022/03/30 04:51:51;;;;;;;23.90;14.23;;;;;;;17.12;59.62;99436.82;1781512;79;21507;-58
2022/03/30 04:54:18;;;;;;;20.00;13.33;;;;;;;16.55;60.26;99442.34;1777738;79;22018;-61
2022/03/30 04:56:47;;;;;;;22.53;16.10;;;;;;;16.86;59.00;99447.56;1780199;79;21750;-58
2022/03/30 04:59:14;;;;;;;23.27;14.93;;;;;;;16.76;58.83;99448.73;1767969;79;21483;-58
2022/03/30 05:01:42;;;;;;;25.30;17.03;;;;;;;16.54;60.14;99444.71;1782075;79;22149;-57
2022/03/30 05:04:09;;;;;;;42.23;27.03;;;;;;;16.75;59.61;99445.30;1744692;81;21753;-57
2022/03/30 05:06:36;;;;;;;34.53;20.67;;;;;;;16.26;61.95;99446.42;1743204;81;21784;-58
2022/03/30 05:09:03;;;;;;;34.33;21.00;;;;;;;16.32;63.50;99440.70;1744488;81;22156;-57
2022/03/30 05:11:31;;;;;;;55.57;30.03;;;;;;;16.49;62.65;99443.33;1743852;81;21742;-58
2022/03/30 05:13:58;;;;;;;38.53;22.77;;;;;;;16.49;62.65;99443.33;1744092;81;21411;-56
2022/03/30 05:16:25;;;;;;;30.57;19.00;;;;;;;17.09;57.79;99445.20;1743967;81;21640;-61
2022/03/30 05:18:52;;;;;;;46.33;23.93;;;;;;;17.09;57.79;99445.20;1743198;81;21784;-57
2022/03/30 05:21:18;;;;;;;28.67;16.60;;;;;;;17.13;57.08;99441.04;1734812;81;22833;-59
2022/03/30 05:23:45;;;;;;;45.10;28.20;;;;;;;17.09;57.03;99441.26;1717973;81;21740;-57
2022/03/30 05:26:12;;;;;;;33.63;21.77;;;;;;;16.86;58.24;99433.58;1717029;81;21712;-59
2022/03/30 05:28:40;;;;;;;21.67;15.80;;;;;;;18.20;54.36;99431.52;1721707;81;21827;-60
2022/03/30 05:31:07;;;;;;;23.43;15.43;;;;;;;17.53;55.25;99441.19;1716510;81;21773;-57
2022/03/30 05:33:34;;;;;;;22.17;16.13;;;;;;;17.53;55.25;99441.19;1718307;81;21747;-60
2022/03/30 05:36:02;;;;;;;29.90;16.67;;;;;;;17.75;55.92;99431.95;1724921;81;21677;-58
2022/03/30 05:38:29;;;;;;;26.17;16.17;;;;;;;17.96;54.30;99416.58;1743719;81;22258;-58
2022/03/30 05:40:56;;;;;;;24.93;15.10;;;;;;;17.93;53.49;99422.88;1743341;81;22267;-59
2022/03/30 05:43:25;;;;;;;24.77;15.93;;;;;;;19.09;49.62;99419.36;1743705;81;21803;-58
2022/03/30 05:45:53;;;;;;;23.27;16.40;;;;;;;18.27;50.19;99408.09;1752285;80;21703;-58
2022/03/30 05:48:19;;;;;;;21.37;15.43;;;;;;;18.86;50.22;99403.94;1734791;82;21705;-59
2022/03/30 05:50:47;;;;;;;23.63;15.73;;;;;;;18.86;50.22;99402.61;1735457;82;21132;-58
2022/03/30 05:53:14;;;;;;;24.33;14.93;;;;;;;18.86;49.20;99403.41;1734972;82;20924;-58
2022/03/30 05:55:44;;;;;;;22.53;15.20;;;;;;;18.23;50.03;99415.72;1735071;82;21716;-59
2022/03/30 05:58:13;;;;;;;21.87;14.33;;;;;;;18.03;51.08;99416.34;1709448;82;21743;-62
2022/03/30 06:00:39;;;;;;;21.13;15.00;;;;;;;18.09;51.97;99411.92;1741306;81;21490;-58
2022/03/30 06:03:06;;;;;;;22.80;15.70;;;;;;;19.15;49.20;99406.95;1772403;79;21745;-58
2022/03/30 06:05:33;;;;;;;21.87;15.87;;;;;;;19.17;49.50;99408.28;1781875;79;23041;-58
2022/03/30 06:08:00;;;;;;;22.83;15.13;;;;;;;18.34;50.72;99415.27;1781202;79;22159;-58
2022/03/30 06:10:28;;;;;;;22.87;14.97;;;;;;;18.53;50.58;99409.84;1781668;79;21081;-62
2022/03/30 06:12:56;;;;;;;19.43;14.80;;;;;;;18.50;50.96;99410.88;1780892;79;21465;-58
2022/03/30 06:15:23;;;;;;;21.33;15.47;;;;;;;18.86;50.30;99410.00;1780807;79;21312;-58
2022/03/30 06:17:51;;;;;;;21.07;13.97;;;;;;;19.09;49.84;99410.11;1781405;79;22045;-58
2022/03/30 06:20:17;;;;;;;19.47;14.13;;;;;;;19.12;50.29;99420.14;1781169;79;21251;-59
2022/03/30 06:22:44;;;;;;;22.80;14.33;;;;;;;20.39;47.15;99414.70;1781029;79;21026;-63
2022/03/30 06:25:12;;;;;;;22.43;14.17;;;;;;;20.84;45.06;99409.83;1781329;79;21644;-63
2022/03/30 06:27:41;;;;;;;18.33;13.67;;;;;;;20.89;44.59;99414.31;1781633;79;22379;-59
2022/03/30 06:30:10;;;;;;;19.17;14.70;;;;;;;21.05;44.39;99415.81;1781068;79;21096;-57
2022/03/30 06:32:37;;;;;;;18.10;14.53;;;;;;;21.37;43.48;99410.12;1781726;79;21200;-61
2022/03/30 06:35:05;;;;;;;19.00;13.47;;;;;;;21.52;42.78;99405.25;1757546;79;20883;-58
2022/03/30 06:37:32;;;;;;;18.67;13.43;;;;;;;20.89;43.68;99414.31;1757095;79;20979;-58
2022/03/30 06:39:59;;;;;;;18.70;12.23;;;;;;;20.95;43.95;99417.21;1760286;79;21073;-58
2022/03/30 06:42:27;;;;;;;17.07;13.03;;;;;;;21.32;43.43;99417.27;1746309;80;21480;-57
2022/03/30 06:44:56;;;;;;;20.70;12.53;;;;;;;22.09;42.17;99407.72;1773026;78;21247;-58
2022/03/30 06:47:22;;;;;;;18.60;12.60;;;;;;;22.79;40.32;99406.47;1780455;79;21688;-57
2022/03/30 06:49:49;;;;;;;15.80;11.20;;;;;;;22.82;40.12;99401.92;1781775;79;21066;-60
2022/03/30 06:52:16;;;;;;;15.20;11.17;;;;;;;23.20;39.02;99402.78;1781371;79;21039;-57
2022/03/30 06:54:42;;;;;;;17.83;12.37;;;;;;;23.37;38.25;99396.94;1781518;79;20908;-63
2022/03/30 06:57:09;;;;;;;16.07;12.27;;;;;;;23.18;38.37;99397.48;1781166;79;21142;-58
2022/03/30 06:59:35;;;;;;;17.27;12.20;;;;;;;22.20;39.58;99397.02;1780942;79;20940;-57
2022/03/30 07:02:03;;;;;;;17.03;11.27;;;;;;;22.26;39.78;99404.65;1781301;79;21543;-57
2022/03/30 07:04:31;;;;;;;17.03;12.93;;;;;;;22.77;38.98;99403.32;1781594;79;20994;-56
2022/03/30 07:12:31;;;;;;;20.50;13.33;;;;;;;21.65;39.62;99403.05;1780816;79;20986;-58
2022/03/30 07:14:58;;;;;;;18.33;13.00;;;;;;;21.41;40.29;99401.63;1780931;79;21026;-62
2022/03/30 07:17:25;;;;;;;18.80;12.43;;;;;;;22.40;38.92;99394.16;1780982;79;21181;-58
2022/03/30 07:19:52;;;;;;;16.13;12.30;;;;;;;22.79;38.44;99393.19;1781339;79;21043;-58
2022/03/30 07:22:19;;;;;;;18.60;12.43;;;;;;;22.85;38.29;99390.73;1781117;79;21148;-59
2022/03/30 07:24:45;;;;;;;15.97;11.20;;;;;;;22.93;38.16;99386.67;1780862;79;21166;-61
2022/03/30 07:27:12;;;;;;;21.13;13.30;;;;;;;22.98;37.67;99386.59;1780627;79;21136;-63
2022/03/30 07:29:39;;;;;;;16.97;12.63;;;;;;;23.03;37.57;99388.66;1781628;79;21579;-59
2022/03/30 07:32:07;;;;;;;27.23;16.50;;;;;;;23.17;37.24;99378.63;1781541;79;21445;-58
2022/03/30 07:34:36;;;;;;;19.30;14.50;;;;;;;23.35;37.11;99389.02;1781176;79;21206;-63
2022/03/30 07:37:04;;;;;;;19.70;12.60;;;;;;;23.49;36.91;99390.66;1780817;79;22417;-58
2022/03/30 07:39:31;;;;;;;19.73;12.37;;;;;;;23.26;36.14;99396.32;1780755;79;21031;-56
2022/03/30 07:41:58;;;;;;;17.50;12.03;;;;;;;23.92;35.32;99390.53;1779362;79;21580;-57
2022/03/30 07:44:24;;;;;;;18.00;12.67;;;;;;;23.23;35.67;99394.77;1770669;79;20963;-57
2022/03/30 07:46:52;;;;;;;15.90;11.37;;;;;;;22.21;37.58;99394.09;1780093;79;21147;-58
2022/03/30 07:49:19;;;;;;;19.23;12.17;;;;;;;22.09;38.04;99393.66;1780929;79;21105;-61
2022/03/30 07:51:46;;;;;;;18.47;11.63;;;;;;;22.26;38.15;99394.57;1781101;79;21047;-58
2022/03/30 07:54:12;;;;;;;16.90;11.47;;;;;;;22.48;37.64;99394.08;1781290;79;21347;-58
2022/03/30 07:56:39;;;;;;;14.80;10.77;;;;;;;22.65;37.29;99397.05;1781411;79;21406;-61
2022/03/30 07:59:06;;;;;;;15.00;10.17;;;;;;;22.75;37.05;99394.83;1780950;79;21272;-57
2022/03/30 08:01:33;;;;;;;18.57;11.83;;;;;;;23.06;36.44;99392.05;1781501;79;21505;-58
2022/03/30 08:04:00;;;;;;;22.73;11.43;;;;;;;24.12;35.10;99384.59;1776971;78;21042;-58
2022/03/30 08:06:27;;;;;;;14.63;10.97;;;;;;;24.45;34.76;99383.47;1787181;78;21045;-59
2022/03/30 08:08:54;;;;;;;14.47;10.40;;;;;;;24.79;34.45;99380.94;1774531;78;20979;-61
2022/03/30 08:11:21;;;;;;;15.63;10.20;;;;;;;25.20;33.42;99374.76;1787005;79;21484;-57
2022/03/30 08:13:48;;;;;;;12.90;9.70;;;;;;;25.44;33.25;99380.58;1786958;78;21539;-56
2022/03/30 08:16:16;;;;;;;16.57;10.07;;;;;;;25.75;32.71;99373.72;1776172;79;21006;-58
2022/03/30 08:18:43;;;;;;;12.63;10.27;;;;;;;26.03;31.88;99373.05;1785472;78;21082;-59
2022/03/30 08:23:58;;;;;;;72.50;43.77;;;;;;;26.49;30.57;99363.83;1786951;78;21101;-59
2022/03/30 08:26:25;;;;;;;48.20;29.37;;;;;;;26.41;30.39;99363.45;1786718;79;21026;-59
2022/03/30 08:28:53;;;;;;;279.77;154.57;;;;;;;26.36;29.91;99356.89;1773434;79;20959;-58
2022/03/30 08:31:19;;;;;;;298.03;158.10;;;;;;;26.29;29.84;99350.43;1773689;78;21101;-58
2022/03/30 08:33:46;;;;;;;126.37;65.63;;;;;;;26.25;29.56;99343.58;1759713;78;21085;-58
2022/03/30 08:36:12;;;;;;;155.97;85.03;;;;;;;26.17;29.74;99345.67;1763193;78;22033;-58
2022/03/30 08:38:39;;;;;;;139.87;79.40;;;;;;;26.31;29.26;99341.02;1764813;78;20847;-62
2022/03/30 08:41:07;;;;;;;134.67;78.23;;;;;;;26.32;28.72;99336.45;1761993;79;21060;-57
2022/03/30 08:43:34;;;;;;;111.07;63.43;;;;;;;26.48;28.61;99333.64;1770666;79;20974;-58
2022/03/30 08:46:02;;;;;;;235.57;130.83;;;;;;;26.47;28.29;99334.72;1786091;79;21040;-57
2022/03/30 08:48:29;;;;;;;197.57;110.50;;;;;;;26.55;28.21;99333.95;1787278;78;21083;-57
2022/03/30 08:50:59;;;;;;;105.60;56.03;;;;;;;26.57;28.22;99328.31;1785975;79;20856;-58
2022/03/30 08:53:26;;;;;;;47.00;30.20;;;;;;;26.81;27.75;99323.84;1786425;78;21129;-58
2022/03/30 08:55:53;;;;;;;24.57;16.67;;;;;;;26.86;27.77;99323.16;1774101;79;21026;-63
2022/03/30 08:58:20;;;;;;;291.47;164.93;;;;;;;26.98;27.76;99323.09;1786497;79;21554;-58
2022/03/30 09:00:47;;;;;;;124.63;70.07;;;;;;;27.10;28.12;99317.88;1782162;78;21250;-59
2022/03/30 09:03:17;;;;;;;221.83;122.00;;;;;;;27.39;27.56;99322.06;1786224;78;21118;-58
2022/03/30 09:05:44;;;;;;;72.75;41.00;;;;;;;27.52;27.27;99316.84;1792937;78;21531;-58
2022/03/30 09:08:20;;;;;;;42.93;27.27;;;;;;;27.52;26.63;99316.84;1791709;79;20958;-61
2022/03/30 09:10:49;;;;;;;104.07;65.63;;;;;;;27.50;26.56;99312.34;1791863;79;20989;-59
2022/03/30 09:13:19;;;;;;;153.70;84.93;;;;;;;27.38;26.65;99318.34;1734324;80;21274;-56
2022/03/30 09:15:49;;;;;;;127.77;75.33;;;;;;;27.33;26.80;99315.29;1792472;79;21037;-57
2022/03/30 09:18:17;;;;;;;150.20;91.43;;;;;;;27.34;26.73;99307.48;1792164;79;21061;-56
2022/03/30 09:20:47;;;;;;;64.67;39.70;;;;;;;27.49;26.63;99305.42;1800188;78;21041;-62
2022/03/30 09:23:14;;;;;;;53.20;36.93;;;;;;;27.67;26.00;99293.56;1792420;78;21061;-58
2022/03/30 09:25:47;;;;;;;90.70;60.47;;;;;;;27.60;25.80;99299.41;1792424;78;21319;-61
2022/03/30 09:28:21;;;;;;;172.40;107.67;;;;;;;27.58;26.13;99295.49;1792352;79;21002;-57
2022/03/30 09:30:48;;;;;;;57.80;35.43;;;;;;;27.79;26.02;99294.26;1792275;79;21445;-56
2022/03/30 09:33:18;;;;;;;56.90;34.60;;;;;;;28.05;25.46;99290.13;1792198;79;20990;-55
2022/03/30 09:35:45;;;;;;;29.00;22.07;;;;;;;28.17;25.13;99284.86;1792495;79;21484;-58
2022/03/30 09:38:21;;;;;;;116.57;83.80;;;;;;;28.48;25.23;99290.46;1791861;78;21317;-56
2022/03/30 09:41:01;;;;;;;32.40;23.83;;;;;;;28.71;24.83;99283.66;1792332;78;20989;-56
2022/03/30 09:43:30;;;;;;;103.17;72.80;;;;;;;28.75;24.14;99289.97;1792494;78;20967;-59
2022/03/30 09:46:09;;;;;;;57.97;43.97;;;;;;;28.63;24.25;99287.75;1792229;79;21054;-56
2022/03/30 09:48:49;;;;;;;46.20;33.18;;;;;;;28.63;24.08;99285.86;1792771;79;22011;-56
2022/03/30 09:51:10;;;;;;;47.37;32.23;;;;;;;28.76;23.35;99288.84;1791253;79;21240;-59
2022/03/30 09:53:38;;;;;;;42.60;28.13;;;;;;;28.60;23.88;99291.87;1774864;78;20912;-56
2022/03/30 09:56:14;;;;;;;37.60;28.03;;;;;;;28.60;23.89;99282.48;1792183;78;21464;-55
2022/03/30 09:58:43;;;;;;;37.50;25.90;;;;;;;28.80;23.94;99277.69;1792136;79;20986;-55
2022/03/30 10:01:17;;;;;;;107.10;66.97;;;;;;;28.94;23.87;99292.71;1790130;78;20931;-58
2022/03/30 10:04:00;;;;;;;118.33;83.53;;;;;;;29.16;23.79;99283.55;1779769;79;21203;-56
2022/03/30 10:06:30;;;;;;;46.10;31.37;;;;;;;29.27;23.73;99276.09;1791741;78;21370;-56
2022/03/30 10:08:58;;;;;;;;;;;;;;;29.61;22.85;99272.84;1789691;78;20982;-59
2022/03/30 10:11:27;;;;;;;41.90;30.17;;;;;;;29.51;22.90;99271.89;1788422;79;21178;-59
2022/03/30 10:13:56;;;;;;;45.47;32.10;;;;;;;29.34;22.92;99269.63;1792766;78;21043;-56
2022/03/30 10:16:23;;;;;;;78.97;60.70;;;;;;;29.16;22.94;99269.58;1792466;79;21810;-55
2022/03/30 10:18:51;;;;;;;53.90;35.93;;;;;;;29.51;22.64;99267.33;1792320;79;21504;-56
2022/03/30 10:21:39;;;;;;;71.40;52.90;;;;;;;29.45;22.47;99261.94;1791426;79;20989;-60
2022/03/30 10:24:28;;;;;;;58.87;42.33;;;;;;;29.29;22.81;99267.16;1792366;79;20970;-56
2022/03/30 10:27:19;;;;;;;36.20;25.17;;;;;;;29.45;22.60;99259.25;1791630;79;21073;-57
2022/03/30 10:29:54;;;;;;;36.27;24.93;;;;;;;29.51;22.22;99257.93;1786567;78;21144;-56
2022/03/30 10:32:23;;;;;;;41.10;29.50;;;;;;;29.41;22.14;99248.17;1780363;79;21504;-57
2022/03/30 10:35:02;;;;;;;40.30;28.57;;;;;;;29.41;22.11;99258.91;1785730;78;21053;-55
2022/03/30 10:37:36;;;;;;;54.97;36.30;;;;;;;29.46;22.24;99249.30;1781786;78;20930;-57
2022/03/30 10:40:20;;;;;;;22.53;17.40;;;;;;;29.40;21.88;99246.05;1788268;79;20983;-57
2022/03/30 10:42:57;;;;;;;25.73;19.10;;;;;;;29.40;21.78;99244.71;1785422;78;21286;-57
2022/03/30 10:45:34;;;;;;;26.17;19.07;;;;;;;29.31;21.91;99250.16;1787178;79;21447;-60
2022/03/30 10:48:31;;;;;;;20.37;14.40;;;;;;;29.66;21.61;99245.75;1792025;79;21053;-58
2022/03/30 10:51:15;;;;;;;21.90;18.07;;;;;;;29.14;21.79;99243.64;1791452;79;20895;-60
2022/03/30 10:53:51;;;;;;;13.63;10.27;;;;;;;28.60;22.01;99248.44;1792708;78;21461;-58
2022/03/30 10:56:25;;;;;;;23.50;17.30;;;;;;;28.57;22.44;99245.63;1773546;80;21176;-61
2022/03/30 10:59:01;;;;;;;16.03;10.27;;;;;;;28.22;22.52;99244.47;1791765;78;22337;-58
2022/03/30 11:01:36;;;;;;;24.03;15.43;;;;;;;28.18;22.30;99248.91;1785379;79;21438;-59
2022/03/30 11:04:17;;;;;;;22.80;14.47;;;;;;;28.12;22.39;99239.51;1783767;80;21519;-59
2022/03/30 11:06:59;;;;;;;16.80;11.20;;;;;;;28.48;22.20;99238.19;1773263;79;21054;-58
2022/03/30 11:09:30;;;;;;;;;;;;;;;28.21;21.92;99234.87;1783658;79;21121;-62
2022/03/30 11:12:15;;;;;;;14.73;12.00;;;;;;;28.06;22.39;99234.09;1767923;80;20767;-60
2022/03/30 11:14:59;;;;;;;24.23;15.40;;;;;;;28.36;22.01;99232.95;1772617;78;21650;-59
2022/03/30 11:17:34;;;;;;;18.97;12.73;;;;;;;27.98;21.96;99227.68;1771093;79;20984;-59
2022/03/30 11:20:05;;;;;;;19.27;14.00;;;;;;;28.17;21.29;99224.57;1779327;79;20995;-58
2022/03/30 11:22:36;;;;;;;20.90;14.20;;;;;;;27.91;21.73;99227.95;1781334;79;20959;-56
2022/03/30 11:25:19;;;;;;;20.67;14.33;;;;;;;27.62;21.83;99227.59;1777310;79;21551;-57
2022/03/30 11:28:08;;;;;;;21.93;13.53;;;;;;;27.54;21.92;99230.28;1781426;79;21042;-58
2022/03/30 11:30:39;;;;;;;14.67;11.83;;;;;;;27.71;22.01;99220.86;1769702;79;21002;-58
2022/03/30 11:33:21;;;;;;;14.47;11.28;;;;;;;27.82;21.93;99216.73;1780963;79;21062;-56